createdAt,value
2018-05-31T00:03:49.438Z,18.90
2018-05-31T00:06:22.525Z,18.90
2018-05-31T00:11:25.552Z,18.80
2018-05-31T00:13:54.087Z,18.90
2018-05-31T00:16:23.173Z,18.80
2018-05-31T00:18:52.270Z,18.80
2018-05-31T00:21:20.600Z,18.80
2018-05-31T00:26:42.476Z,18.80
2018-05-31T00:29:11.579Z,18.80
2018-05-31T00:31:40.107Z,18.80
2018-05-31T00:34:20.482Z,18.80
2018-05-31T00:39:23.662Z,18.80
2018-05-31T00:44:28.201Z,18.80
2018-05-31T00:46:56.538Z,18.80
2018-05-31T00:49:25.086Z,18.70
2018-05-31T00:52:04.714Z,18.70
2018-05-31T00:54:33.251Z,18.60
2018-05-31T00:57:02.341Z,18.70
2018-05-31T00:59:33.890Z,18.70
2018-05-31T01:02:02.417Z,18.60
2018-05-31T01:07:23.403Z,18.60
2018-05-31T01:09:52.517Z,18.60
2018-05-31T01:12:21.029Z,18.60
2018-05-31T01:17:24.592Z,18.70
2018-05-31T01:19:53.156Z,18.70
2018-05-31T01:22:27.842Z,18.70
2018-05-31T01:24:56.371Z,18.70
2018-05-31T01:30:11.484Z,18.60
2018-05-31T01:32:40.003Z,18.60
2018-05-31T01:37:42.220Z,18.60
2018-05-31T01:40:11.308Z,18.50
2018-05-31T01:45:22.590Z,18.50
2018-05-31T01:50:25.140Z,18.40
2018-05-31T01:55:27.455Z,18.40
2018-05-31T01:57:55.801Z,18.40
2018-05-31T02:00:24.312Z,18.40
2018-05-31T02:05:26.280Z,18.40
2018-05-31T02:07:54.825Z,18.40
2018-05-31T02:10:41.282Z,18.40
2018-05-31T02:13:10.380Z,18.30
2018-05-31T02:15:38.721Z,18.30
2018-05-31T02:18:07.250Z,18.30
2018-05-31T02:20:38.919Z,18.30
2018-05-31T02:25:47.967Z,18.20
2018-05-31T02:28:16.289Z,18.20
2018-05-31T02:30:44.891Z,18.20
2018-05-31T02:33:13.238Z,18.10
2018-05-31T02:35:41.766Z,18.10
2018-05-31T02:38:11.046Z,18.00
2018-05-31T02:40:39.751Z,18.10
2018-05-31T02:43:08.082Z,18.10
2018-05-31T02:45:37.194Z,18.10
2018-05-31T02:48:06.158Z,18.10
2018-05-31T02:50:34.931Z,18.00
2018-05-31T02:53:03.459Z,18.00
2018-05-31T02:55:32.367Z,18.00
2018-05-31T02:58:01.667Z,18.00
2018-05-31T03:00:30.972Z,18.00
2018-05-31T03:03:00.274Z,18.00
2018-05-31T03:05:28.809Z,18.00
2018-05-31T03:07:57.357Z,18.10
2018-05-31T03:10:26.650Z,18.10
2018-05-31T03:12:55.203Z,18.10
2018-05-31T03:15:23.534Z,18.10
2018-05-31T03:17:51.878Z,18.10
2018-05-31T03:20:20.389Z,18.20
2018-05-31T03:22:48.911Z,18.20
2018-05-31T03:25:17.426Z,18.20
2018-05-31T03:27:45.973Z,18.20
2018-05-31T03:30:14.516Z,18.30
2018-05-31T03:32:43.033Z,18.30
2018-05-31T03:35:11.545Z,18.30
2018-05-31T03:37:40.072Z,18.40
2018-05-31T03:40:08.575Z,18.40
2018-05-31T03:42:37.657Z,18.40
2018-05-31T03:45:06.789Z,18.50
2018-05-31T03:47:35.332Z,18.50
2018-05-31T03:50:04.207Z,18.50
2018-05-31T03:52:34.094Z,18.60
2018-05-31T03:55:03.233Z,18.60
2018-05-31T03:57:31.564Z,18.60
2018-05-31T04:00:00.648Z,18.60
2018-05-31T04:02:30.366Z,18.70
2018-05-31T04:04:59.293Z,18.70
2018-05-31T04:07:28.254Z,18.70
2018-05-31T04:09:57.349Z,18.70
2018-05-31T04:12:26.482Z,18.80
2018-05-31T04:14:55.605Z,18.80
2018-05-31T04:17:24.738Z,18.90
2018-05-31T04:19:53.254Z,18.90
2018-05-31T04:22:22.188Z,18.90
2018-05-31T04:24:51.876Z,19.00
2018-05-31T04:27:21.016Z,19.00
2018-05-31T04:29:50.129Z,19.00
2018-05-31T04:32:19.085Z,19.10
2018-05-31T04:34:48.196Z,19.10
2018-05-31T04:37:17.328Z,19.10
2018-05-31T04:39:46.451Z,19.10
2018-05-31T04:42:15.569Z,19.20
2018-05-31T04:44:44.685Z,19.20
2018-05-31T04:47:13.593Z,19.20
2018-05-31T04:49:42.717Z,19.20
2018-05-31T04:52:11.821Z,19.30
2018-05-31T04:54:40.343Z,19.30
2018-05-31T04:57:09.441Z,19.30
2018-05-31T04:59:38.595Z,19.40
2018-05-31T05:02:07.507Z,19.40
2018-05-31T05:04:36.429Z,19.40
2018-05-31T05:07:05.345Z,19.50
2018-05-31T05:09:34.429Z,19.50
2018-05-31T05:12:03.539Z,19.60
2018-05-31T05:14:32.645Z,19.60
2018-05-31T05:17:01.770Z,19.70
2018-05-31T05:19:30.892Z,19.80
2018-05-31T05:21:59.811Z,19.90
2018-05-31T05:24:28.706Z,20.00
2018-05-31T05:26:57.801Z,20.10
2018-05-31T05:29:26.927Z,20.10
2018-05-31T05:31:56.048Z,20.30
2018-05-31T05:34:25.204Z,20.40
2018-05-31T05:36:54.520Z,20.50
2018-05-31T05:39:23.633Z,20.60
2018-05-31T05:41:52.759Z,20.80
2018-05-31T05:44:21.518Z,20.90
2018-05-31T05:46:50.625Z,21.10
2018-05-31T05:49:19.684Z,21.30
2018-05-31T05:51:48.805Z,21.40
2018-05-31T05:54:17.894Z,21.60
2018-05-31T05:56:47.783Z,21.80
2018-05-31T05:59:16.896Z,21.80
2018-05-31T06:01:46.034Z,21.90
2018-05-31T06:04:15.281Z,22.00
2018-05-31T06:06:44.352Z,22.10
2018-05-31T06:09:13.429Z,22.20
2018-05-31T06:11:42.553Z,22.30
2018-05-31T06:14:11.642Z,22.30
2018-05-31T06:16:42.355Z,22.50
2018-05-31T06:19:11.444Z,22.50
2018-05-31T06:21:40.541Z,22.60
2018-05-31T06:24:09.628Z,22.70
2018-05-31T06:26:38.693Z,22.80
2018-05-31T06:29:07.795Z,22.90
2018-05-31T06:31:36.862Z,22.90
2018-05-31T06:34:05.766Z,23.00
2018-05-31T06:36:34.842Z,23.00
2018-05-31T06:39:03.236Z,22.90
2018-05-31T06:41:32.135Z,23.00
2018-05-31T06:44:01.051Z,22.90
2018-05-31T06:46:30.718Z,23.00
2018-05-31T06:49:03.539Z,23.00
2018-05-31T06:51:33.207Z,23.20
2018-05-31T06:54:02.102Z,23.10
2018-05-31T06:56:31.177Z,23.30
2018-05-31T06:59:00.055Z,23.40
2018-05-31T07:01:28.948Z,23.70
2018-05-31T07:03:57.828Z,23.80
2018-05-31T07:06:26.723Z,24.00
2018-05-31T07:08:56.395Z,24.10
2018-05-31T07:11:25.272Z,24.10
2018-05-31T07:13:54.154Z,24.10
2018-05-31T07:16:23.033Z,24.10
2018-05-31T07:18:51.905Z,24.10
2018-05-31T07:21:20.791Z,24.10
2018-05-31T07:23:49.713Z,24.10
2018-05-31T07:26:18.256Z,24.10
2018-05-31T07:28:47.927Z,24.10
2018-05-31T07:31:16.811Z,24.10
2018-05-31T07:33:45.468Z,24.10
2018-05-31T07:36:14.365Z,24.20
2018-05-31T07:38:43.457Z,24.20
2018-05-31T07:41:13.316Z,24.00
2018-05-31T07:43:42.266Z,23.90
2018-05-31T07:46:11.164Z,24.00
2018-05-31T07:48:40.103Z,23.90
2018-05-31T07:51:09.003Z,24.00
2018-05-31T07:53:37.931Z,23.90
2018-05-31T07:56:07.599Z,23.70
2018-05-31T07:58:36.510Z,23.70
2018-05-31T08:01:06.180Z,23.70
2018-05-31T08:03:35.065Z,23.70
2018-05-31T08:06:04.194Z,23.70
2018-05-31T08:08:33.126Z,23.70
2018-05-31T08:11:02.002Z,23.60
2018-05-31T08:13:30.914Z,23.70
2018-05-31T08:15:59.816Z,23.60
2018-05-31T08:18:28.720Z,23.60
2018-05-31T08:20:58.390Z,23.80
2018-05-31T08:23:27.328Z,23.80
2018-05-31T08:25:56.223Z,24.00
2018-05-31T08:28:25.136Z,24.10
2018-05-31T08:30:54.052Z,24.20
2018-05-31T08:33:22.934Z,24.20
2018-05-31T08:35:52.624Z,24.30
2018-05-31T08:38:21.496Z,24.30
2018-05-31T08:40:50.405Z,24.40
2018-05-31T08:43:20.073Z,24.30
2018-05-31T08:45:48.960Z,24.30
2018-05-31T08:48:17.843Z,24.20
2018-05-31T08:50:46.739Z,24.10
2018-05-31T08:53:15.623Z,24.10
2018-05-31T08:55:44.511Z,24.00
2018-05-31T08:58:13.421Z,23.90
2018-05-31T09:00:42.309Z,23.70
2018-05-31T09:03:11.254Z,23.60
2018-05-31T09:05:40.155Z,23.50
2018-05-31T09:08:09.060Z,23.50
2018-05-31T09:10:37.980Z,23.40
2018-05-31T09:13:07.695Z,23.30
2018-05-31T09:15:37.361Z,23.30
2018-05-31T09:18:06.454Z,23.30
2018-05-31T09:20:35.372Z,23.20
2018-05-31T09:23:04.299Z,23.20
2018-05-31T09:25:33.939Z,23.00
2018-05-31T09:28:02.840Z,22.90
2018-05-31T09:30:44.179Z,22.70
2018-05-31T09:33:15.887Z,22.50
2018-05-31T09:35:44.788Z,22.10
2018-05-31T09:38:13.702Z,21.90
2018-05-31T09:40:42.616Z,21.60
2018-05-31T09:43:11.502Z,21.30
2018-05-31T09:45:40.401Z,20.90
2018-05-31T09:48:09.314Z,20.50
2018-05-31T09:50:38.363Z,20.20
2018-05-31T09:53:06.915Z,19.90
2018-05-31T09:55:35.817Z,19.50
2018-05-31T09:58:04.123Z,19.20
2018-05-31T10:00:42.542Z,19.00
2018-05-31T10:03:11.424Z,18.80
2018-05-31T10:05:40.316Z,18.50
2018-05-31T10:08:09.179Z,18.50
2018-05-31T10:10:38.045Z,18.40
2018-05-31T10:13:06.923Z,18.40
2018-05-31T10:15:35.810Z,18.40
2018-05-31T10:18:04.695Z,18.40
2018-05-31T10:20:33.606Z,18.30
2018-05-31T10:23:01.945Z,18.30
2018-05-31T10:25:31.589Z,18.40
2018-05-31T10:28:00.479Z,18.40
2018-05-31T10:30:29.387Z,18.50
2018-05-31T10:32:58.269Z,18.50
2018-05-31T10:35:27.179Z,18.50
2018-05-31T10:37:56.077Z,18.50
2018-05-31T10:40:24.961Z,18.60
2018-05-31T10:42:53.273Z,18.70
2018-05-31T10:45:22.147Z,18.90
2018-05-31T10:47:50.797Z,18.90
2018-05-31T10:53:11.346Z,19.00
2018-05-31T10:55:40.204Z,19.10
2018-05-31T10:58:09.083Z,19.10
2018-05-31T11:00:38.003Z,19.10
2018-05-31T11:05:41.105Z,19.20
2018-05-31T11:08:10.009Z,19.20
2018-05-31T11:10:39.633Z,19.50
2018-05-31T11:13:08.517Z,19.50
2018-05-31T11:15:37.422Z,19.50
2018-05-31T11:18:06.310Z,19.70
2018-05-31T11:20:35.195Z,19.90
2018-05-31T11:23:04.084Z,20.00
2018-05-31T11:25:32.964Z,20.10
2018-05-31T11:28:02.674Z,20.50
2018-05-31T11:30:31.547Z,20.50
2018-05-31T11:33:01.248Z,20.60
2018-05-31T11:35:30.147Z,20.50
2018-05-31T11:37:59.049Z,20.60
2018-05-31T11:40:31.094Z,20.50
2018-05-31T11:42:59.978Z,20.40
2018-05-31T11:45:28.851Z,20.20
2018-05-31T11:47:57.753Z,20.10
2018-05-31T11:50:26.663Z,20.10
2018-05-31T11:52:55.536Z,19.50
2018-05-31T11:55:24.489Z,18.90
2018-05-31T11:57:53.397Z,18.60
2018-05-31T12:00:22.254Z,18.50
2018-05-31T12:02:51.135Z,18.40
2018-05-31T12:05:23.140Z,18.40
2018-05-31T12:08:07.325Z,18.40
2018-05-31T12:10:35.810Z,18.10
2018-05-31T12:13:07.724Z,17.80
2018-05-31T12:15:36.032Z,17.70
2018-05-31T12:18:04.371Z,17.70
2018-05-31T12:20:33.627Z,17.70
2018-05-31T12:23:01.671Z,17.60
2018-05-31T12:25:30.783Z,17.50
2018-05-31T12:27:59.273Z,17.50
2018-05-31T12:30:27.594Z,17.40
2018-05-31T12:32:55.932Z,17.40
2018-05-31T12:35:24.271Z,17.40
2018-05-31T12:37:52.634Z,17.50
2018-05-31T12:40:20.965Z,17.50
2018-05-31T12:42:50.058Z,18.10
2018-05-31T12:45:18.158Z,18.10
2018-05-31T12:47:47.443Z,18.60
2018-05-31T12:50:16.352Z,18.60
2018-05-31T12:52:45.249Z,18.90
2018-05-31T12:58:05.803Z,19.40
2018-05-31T13:00:34.701Z,19.50
2018-05-31T13:03:03.587Z,19.70
2018-05-31T13:05:33.317Z,20.10
2018-05-31T13:08:02.352Z,20.10
2018-05-31T13:10:31.240Z,20.40
2018-05-31T13:13:00.141Z,20.50
2018-05-31T13:15:29.005Z,20.50
2018-05-31T13:17:57.903Z,20.70
2018-05-31T13:20:26.783Z,20.70
2018-05-31T13:22:55.723Z,20.90
2018-05-31T13:25:24.619Z,21.10
2018-05-31T13:27:53.496Z,21.30
2018-05-31T13:30:22.396Z,21.50
2018-05-31T13:32:52.052Z,21.80
2018-05-31T13:35:20.920Z,21.80
2018-05-31T13:37:49.823Z,21.80
2018-05-31T13:40:18.714Z,21.80
2018-05-31T13:42:47.580Z,22.00
2018-05-31T13:45:16.513Z,22.20
2018-05-31T13:47:45.403Z,22.20
2018-05-31T13:50:14.275Z,22.40
2018-05-31T13:52:42.864Z,22.50
2018-05-31T13:55:11.749Z,22.50
2018-05-31T13:57:40.636Z,22.60
2018-05-31T14:00:09.587Z,22.70
2018-05-31T14:02:38.468Z,22.80
2018-05-31T14:05:07.357Z,23.00
2018-05-31T14:07:36.290Z,23.10
2018-05-31T14:10:05.374Z,23.10
2018-05-31T14:12:34.274Z,23.20
2018-05-31T14:15:03.226Z,23.30
2018-05-31T14:17:32.139Z,23.40
2018-05-31T14:20:01.078Z,23.60
2018-05-31T14:22:29.992Z,23.70
2018-05-31T14:24:59.901Z,24.20
2018-05-31T14:27:28.795Z,24.20
2018-05-31T14:29:57.674Z,24.30
2018-05-31T14:32:26.339Z,24.60
2018-05-31T14:34:55.226Z,25.00
2018-05-31T14:37:24.620Z,25.50
2018-05-31T14:39:53.534Z,25.40
2018-05-31T14:42:22.130Z,25.70
2018-05-31T14:44:50.707Z,26.10
2018-05-31T14:47:19.315Z,26.10
2018-05-31T14:49:48.729Z,26.60
2018-05-31T14:52:17.342Z,26.60
2018-05-31T14:54:45.953Z,26.80
2018-05-31T14:57:14.563Z,27.10
2018-05-31T14:59:52.303Z,27.50
2018-05-31T15:02:20.913Z,27.90
2018-05-31T15:04:49.526Z,28.00
2018-05-31T15:07:17.908Z,28.20
2018-05-31T15:09:46.515Z,28.40
2018-05-31T15:12:15.130Z,28.60
2018-05-31T15:14:44.488Z,29.00
2018-05-31T15:17:13.101Z,29.00
2018-05-31T15:19:41.702Z,29.20
2018-05-31T15:22:10.326Z,29.50
2018-05-31T15:24:38.931Z,29.60
2018-05-31T15:27:07.541Z,29.90
2018-05-31T15:29:36.185Z,30.30
2018-05-31T15:32:04.579Z,30.50
2018-05-31T15:34:33.447Z,30.70
2018-05-31T15:37:02.081Z,30.90
2018-05-31T15:39:30.722Z,31.10
2018-05-31T15:41:59.398Z,30.90
2018-05-31T15:44:28.175Z,31.40
2018-05-31T15:46:56.780Z,31.80
2018-05-31T15:49:26.208Z,32.20
2018-05-31T15:51:55.402Z,32.20
2018-05-31T15:54:24.234Z,32.40
2018-05-31T15:56:52.840Z,32.70
2018-05-31T15:59:21.475Z,32.90
2018-05-31T16:01:50.850Z,33.60
2018-05-31T16:04:19.456Z,33.60
2018-05-31T16:06:48.072Z,33.50
2018-05-31T16:09:16.696Z,33.70
2018-05-31T16:11:45.283Z,34.10
2018-05-31T16:14:13.915Z,34.50
2018-05-31T16:16:43.325Z,34.80
2018-05-31T16:21:46.981Z,34.90
2018-05-31T16:24:15.595Z,35.20
2018-05-31T16:26:44.246Z,35.50
2018-05-31T16:29:12.893Z,36.10
2018-05-31T16:31:41.472Z,36.30
2018-05-31T16:34:10.844Z,36.90
2018-05-31T16:36:39.468Z,36.90
2018-05-31T16:39:08.067Z,36.70
2018-05-31T16:41:36.694Z,36.00
2018-05-31T16:44:05.283Z,35.70
2018-05-31T16:46:33.893Z,34.50
2018-05-31T16:49:02.478Z,34.60
2018-05-31T16:51:30.843Z,34.40
2018-05-31T16:53:59.444Z,34.80
2018-05-31T16:56:28.037Z,34.80
2018-05-31T16:58:56.657Z,34.70
2018-05-31T17:01:25.258Z,34.30
2018-05-31T17:03:53.847Z,33.90
2018-05-31T17:06:22.460Z,33.70
2018-05-31T17:08:51.853Z,32.50
2018-05-31T17:11:20.468Z,32.50
2018-05-31T17:13:49.075Z,31.80
2018-05-31T17:16:17.683Z,31.20
2018-05-31T17:18:46.285Z,30.20
2018-05-31T17:21:14.896Z,29.70
2018-05-31T17:23:43.503Z,29.30
2018-05-31T17:26:12.890Z,28.50
2018-05-31T17:28:41.475Z,28.50
2018-05-31T17:31:09.747Z,28.30
2018-05-31T17:33:38.340Z,28.00
2018-05-31T17:36:08.446Z,27.50
2018-05-31T17:38:37.810Z,27.30
2018-05-31T17:41:06.438Z,27.30
2018-05-31T17:43:35.353Z,27.00
2018-05-31T17:46:03.966Z,26.90
2018-05-31T17:48:32.826Z,26.80
2018-05-31T17:51:01.745Z,26.70
2018-05-31T17:53:30.817Z,26.60
2018-05-31T17:55:59.710Z,26.40
2018-05-31T17:58:28.798Z,26.40
2018-05-31T18:00:57.688Z,26.20
2018-05-31T18:03:26.616Z,26.00
2018-05-31T18:05:55.665Z,26.00
2018-05-31T18:08:24.570Z,25.90
2018-05-31T18:10:53.436Z,25.70
2018-05-31T18:13:23.126Z,25.20
2018-05-31T18:15:52.026Z,25.20
2018-05-31T18:18:20.911Z,25.00
2018-05-31T18:20:49.859Z,24.90
2018-05-31T18:23:18.888Z,24.90
2018-05-31T18:25:47.795Z,24.90
2018-05-31T18:28:16.671Z,24.90
2018-05-31T18:30:45.776Z,24.90
2018-05-31T18:33:14.645Z,24.90
2018-05-31T18:35:43.533Z,24.80
2018-05-31T18:38:12.408Z,24.80
2018-05-31T18:40:44.289Z,24.70
2018-05-31T18:43:13.191Z,24.60
2018-05-31T18:45:42.096Z,24.50
2018-05-31T18:48:10.978Z,24.50
2018-05-31T18:50:39.898Z,24.40
2018-05-31T18:53:08.760Z,24.30
2018-05-31T18:55:38.408Z,24.10
2018-05-31T18:58:06.766Z,24.10
2018-05-31T19:00:36.411Z,23.90
2018-05-31T19:03:05.300Z,23.90
2018-05-31T19:05:34.200Z,23.80
2018-05-31T19:08:03.083Z,23.70
2018-05-31T19:10:31.775Z,23.60
2018-05-31T19:13:06.191Z,23.60
2018-05-31T19:15:35.099Z,23.40
2018-05-31T19:18:03.938Z,23.20
2018-05-31T19:20:32.844Z,23.20
2018-05-31T19:23:01.746Z,23.20
2018-05-31T19:25:30.105Z,23.20
2018-05-31T19:27:58.979Z,23.00
2018-05-31T19:30:34.193Z,22.90
2018-05-31T19:33:03.278Z,22.90
2018-05-31T19:35:37.707Z,22.90
2018-05-31T19:38:06.620Z,22.70
2018-05-31T19:40:35.525Z,22.60
2018-05-31T19:43:09.414Z,22.50
2018-05-31T19:45:38.328Z,22.40
2018-05-31T19:48:08.035Z,22.30
2018-05-31T19:50:36.966Z,22.20
2018-05-31T19:53:11.260Z,22.20
2018-05-31T19:55:40.171Z,22.10
2018-05-31T19:58:14.555Z,22.00
2018-05-31T20:00:48.955Z,22.00
2018-05-31T20:03:23.346Z,21.90
2018-05-31T20:05:52.255Z,21.80
2018-05-31T20:08:21.201Z,21.70
2018-05-31T20:10:50.121Z,21.60
2018-05-31T20:13:19.036Z,21.60
2018-05-31T20:15:48.726Z,21.40
2018-05-31T20:18:17.668Z,21.30
2018-05-31T20:20:46.626Z,21.30
2018-05-31T20:23:15.723Z,21.20
2018-05-31T20:25:44.661Z,21.10
2018-05-31T20:28:13.639Z,21.10
2018-05-31T20:30:43.332Z,21.00
2018-05-31T20:33:12.411Z,21.00
2018-05-31T20:35:41.329Z,20.90
2018-05-31T20:38:10.276Z,20.90
2018-05-31T20:40:39.180Z,20.80
2018-05-31T20:43:08.094Z,20.80
2018-05-31T20:45:37.035Z,20.70
2018-05-31T20:48:05.939Z,20.60
2018-05-31T20:50:34.864Z,20.60
2018-05-31T20:53:03.795Z,20.60
2018-05-31T20:55:32.704Z,20.50
2018-05-31T20:58:01.625Z,20.40
2018-05-31T21:00:30.554Z,20.40
2018-05-31T21:02:59.469Z,20.30
2018-05-31T21:05:31.495Z,20.20
2018-05-31T21:08:00.594Z,20.20
2018-05-31T21:10:28.925Z,20.20
2018-05-31T21:12:57.878Z,20.10
2018-05-31T21:15:26.793Z,19.90
2018-05-31T21:17:55.746Z,19.80
2018-05-31T21:20:24.678Z,19.80
2018-05-31T21:22:53.607Z,19.80
2018-05-31T21:25:22.683Z,19.70
2018-05-31T21:27:51.617Z,19.60
2018-05-31T21:30:21.288Z,19.50
2018-05-31T21:32:50.235Z,19.50
2018-05-31T21:35:19.161Z,19.40
2018-05-31T21:37:48.071Z,19.40
2018-05-31T21:40:16.439Z,19.30
2018-05-31T21:42:45.351Z,19.30
2018-05-31T21:45:14.444Z,19.20
2018-05-31T21:47:45.954Z,19.20
2018-05-31T21:50:15.624Z,19.10
2018-05-31T21:52:44.058Z,19.10
2018-05-31T21:55:12.529Z,19.00
2018-05-31T21:57:40.896Z,18.90
2018-05-31T22:00:08.429Z,18.90
2018-05-31T22:05:10.356Z,18.90
2018-05-31T22:07:38.387Z,18.90
2018-05-31T22:10:06.718Z,18.80
2018-05-31T22:12:35.052Z,18.90
2018-05-31T22:15:03.146Z,18.80
2018-05-31T22:17:32.261Z,18.80
2018-05-31T22:20:00.590Z,18.80
2018-05-31T22:22:28.923Z,18.80
2018-05-31T22:24:57.294Z,18.70
2018-05-31T22:27:25.772Z,18.80
2018-05-31T22:29:54.852Z,18.70
2018-05-31T22:32:23.205Z,18.70
2018-05-31T22:34:51.544Z,18.60
2018-05-31T22:37:20.665Z,18.40
2018-05-31T22:39:48.986Z,18.40
2018-05-31T22:42:17.318Z,18.30
2018-05-31T22:44:46.437Z,18.10
2018-05-31T22:47:14.739Z,18.10
2018-05-31T22:49:43.059Z,18.10
2018-05-31T22:52:11.362Z,18.10
2018-05-31T22:54:39.686Z,18.10
2018-05-31T22:57:08.025Z,18.00
2018-05-31T22:59:36.360Z,18.00
2018-05-31T23:02:04.459Z,18.00
2018-05-31T23:04:32.779Z,18.00
2018-05-31T23:07:01.102Z,18.00
2018-05-31T23:09:29.592Z,17.90
2018-05-31T23:11:57.934Z,17.90
2018-05-31T23:14:26.276Z,17.90
2018-05-31T23:16:54.603Z,17.80
2018-05-31T23:19:22.919Z,17.80
2018-05-31T23:21:52.008Z,17.80
2018-05-31T23:24:20.320Z,17.70
2018-05-31T23:26:48.653Z,17.70
2018-05-31T23:29:16.968Z,17.70
2018-05-31T23:31:45.316Z,17.80
2018-05-31T23:34:13.627Z,17.70
2018-05-31T23:36:41.949Z,17.70
2018-05-31T23:39:11.045Z,17.80
2018-05-31T23:41:39.360Z,17.80
2018-05-31T23:44:07.666Z,17.80
2018-05-31T23:46:35.997Z,17.80
2018-05-31T23:49:04.860Z,17.80
2018-05-31T23:51:33.198Z,17.80
2018-05-31T23:54:01.524Z,17.90
2018-05-31T23:56:29.824Z,17.90
2018-05-31T23:58:58.158Z,17.90
